Accueil
METAR-TAF:

METAR-TAF

Aéroports :

Aéroport Albert-Picardie

Albert, France

latitude: 49-58-21N, longitude: 002-41-29E, altitude: 111 m

Observation

Le bulletin a été fait il y a 29 minutes, à 11:00 UTC
Vent 9 kt de sud-est
Température 3°C
Humidité 93%
Pression 1014 hPa
Visibilité: 5000 m
brume

METAR: LFAQ 211100Z AUTO 13009KT 5000 BR NSC 03/02 Q1014 NOSIG

Heure: 12:29 (11:29 UTC)

Prévision

Le bulletin a été fait il y a 3 heures et 29 minutes, à 08:00 UTC
Prévision valable du 21 à 09 UTC au 21 à 18 UTC
Vent 8 kt de est/sud-est
Visibilité: 3000 m
brume
Evoluant progressivement
du 21 à 09 UTC au 21 à 11 UTC
Visibilité 10 km ou plus

TAF: LFAQ 210800Z 2109/2118 12008KT 3000 BR NSC BECMG 2109/2111 9999 NSW

Observations et prévisions météorologiques de plus de 4000 aéroports (messages METAR et TAF).

Les stations disponibles sont représentées par des disques jaunes et rouges sur la carte.

Passer la souris dessus pour voir le nom de la station.

Cliquer dessus pour voir les observations et prévisions météorologiques.

Pour changer de carte: cliquez sur les boutons verts avec une croix noire pour zoomer, sur le bouton vert avec un tiret pour effectuer un zoom arrière, ou sur les flèches vertes pour les cartes adjacentes.


METAR-TAF: